sensor_id;sensor_type;location;lat;lon;timestamp;pressure;altitude;pressure_sealevel;temperature;humidity
44027;BME280;29696;55.698;37.460;2023-02-19T00:01:40;97952.84;;;-7.47;75.63
44027;BME280;29696;55.698;37.460;2023-02-19T00:04:11;97943.59;;;-7.51;75.64
44027;BME280;29696;55.698;37.460;2023-02-19T00:06:39;97941.88;;;-7.50;75.36
44027;BME280;29696;55.698;37.460;2023-02-19T00:09:05;97936.94;;;-7.55;75.61
44027;BME280;29696;55.698;37.460;2023-02-19T00:11:33;97944.44;;;-7.50;75.89
44027;BME280;29696;55.698;37.460;2023-02-19T00:14:01;97952.13;;;-7.50;75.69
44027;BME280;29696;55.698;37.460;2023-02-19T00:16:30;97945.28;;;-7.50;75.74
44027;BME280;29696;55.698;37.460;2023-02-19T00:18:57;97935.75;;;-7.48;75.70
44027;BME280;29696;55.698;37.460;2023-02-19T00:21:24;97932.38;;;-7.48;75.79
44027;BME280;29696;55.698;37.460;2023-02-19T00:23:55;97924.88;;;-7.53;75.31
44027;BME280;29696;55.698;37.460;2023-02-19T00:26:22;97932.31;;;-7.47;75.36
44027;BME280;29696;55.698;37.460;2023-02-19T00:28:49;97922.06;;;-7.47;75.38
44027;BME280;29696;55.698;37.460;2023-02-19T00:31:39;97925.19;;;-7.40;75.74
44027;BME280;29696;55.698;37.460;2023-02-19T00:34:06;97926.22;;;-7.44;75.75
44027;BME280;29696;55.698;37.460;2023-02-19T00:36:36;97917.78;;;-7.48;75.51
44027;BME280;29696;55.698;37.460;2023-02-19T00:39:04;97927.19;;;-7.47;75.35
44027;BME280;29696;55.698;37.460;2023-02-19T00:41:31;97916.22;;;-7.50;75.62
44027;BME280;29696;55.698;37.460;2023-02-19T00:44:00;97913.84;;;-7.55;75.54
44027;BME280;29696;55.698;37.460;2023-02-19T00:46:38;97903.66;;;-7.56;75.87
44027;BME280;29696;55.698;37.460;2023-02-19T00:49:07;97891.91;;;-7.62;76.29
44027;BME280;29696;55.698;37.460;2023-02-19T00:51:35;97891.09;;;-7.63;76.42
44027;BME280;29696;55.698;37.460;2023-02-19T00:54:03;97900.63;;;-7.66;76.12
44027;BME280;29696;55.698;37.460;2023-02-19T00:56:30;97893.13;;;-7.71;75.95
44027;BME280;29696;55.698;37.460;2023-02-19T00:58:56;97886.19;;;-7.69;76.03
44027;BME280;29696;55.698;37.460;2023-02-19T01:01:22;97873.31;;;-7.67;76.42
44027;BME280;29696;55.698;37.460;2023-02-19T01:03:50;97873.44;;;-7.70;76.02
44027;BME280;29696;55.698;37.460;2023-02-19T01:06:18;97874.28;;;-7.70;76.21
44027;BME280;29696;55.698;37.460;2023-02-19T01:08:45;97865.94;;;-7.75;76.25
44027;BME280;29696;55.698;37.460;2023-02-19T01:11:12;97883.75;;;-7.72;76.22
44027;BME280;29696;55.698;37.460;2023-02-19T01:13:40;97866.00;;;-7.76;76.34
44027;BME280;29696;55.698;37.460;2023-02-19T01:16:16;97874.28;;;-7.70;76.59
44027;BME280;29696;55.698;37.460;2023-02-19T01:18:43;97870.94;;;-7.72;76.60
44027;BME280;29696;55.698;37.460;2023-02-19T01:21:12;97869.13;;;-7.70;76.74
44027;BME280;29696;55.698;37.460;2023-02-19T01:23:39;97858.97;;;-7.71;76.79
44027;BME280;29696;55.698;37.460;2023-02-19T01:26:07;97858.97;;;-7.71;76.71
44027;BME280;29696;55.698;37.460;2023-02-19T01:28:35;97859.28;;;-7.79;76.97
44027;BME280;29696;55.698;37.460;2023-02-19T01:31:03;97861.91;;;-7.81;76.68
44027;BME280;29696;55.698;37.460;2023-02-19T01:33:30;97858.63;;;-7.84;76.86
44027;BME280;29696;55.698;37.460;2023-02-19T01:35:57;97843.56;;;-7.92;76.91
44027;BME280;29696;55.698;37.460;2023-02-19T01:38:23;97859.84;;;-7.93;77.08
44027;BME280;29696;55.698;37.460;2023-02-19T01:40:54;97856.44;;;-7.93;76.94
44027;BME280;29696;55.698;37.460;2023-02-19T01:43:21;97853.31;;;-8.00;77.18
44027;BME280;29696;55.698;37.460;2023-02-19T01:45:47;97866.25;;;-8.03;77.17
44027;BME280;29696;55.698;37.460;2023-02-19T01:48:37;97856.66;;;-7.98;77.35
44027;BME280;29696;55.698;37.460;2023-02-19T01:51:13;97852.47;;;-8.00;77.49
44027;BME280;29696;55.698;37.460;2023-02-19T01:53:44;97843.00;;;-7.98;77.62
44027;BME280;29696;55.698;37.460;2023-02-19T01:56:14;97848.88;;;-7.96;77.54
44027;BME280;29696;55.698;37.460;2023-02-19T01:58:43;97841.88;;;-7.93;77.54
44027;BME280;29696;55.698;37.460;2023-02-19T02:01:10;97851.88;;;-7.87;77.24
44027;BME280;29696;55.698;37.460;2023-02-19T02:03:38;97847.63;;;-7.86;77.32
44027;BME280;29696;55.698;37.460;2023-02-19T02:06:29;97843.19;;;-7.83;77.23
44027;BME280;29696;55.698;37.460;2023-02-19T02:08:59;97845.09;;;-7.88;77.06
44027;BME280;29696;55.698;37.460;2023-02-19T02:11:49;97843.25;;;-7.84;77.16
44027;BME280;29696;55.698;37.460;2023-02-19T02:14:23;97841.53;;;-7.84;77.02
44027;BME280;29696;55.698;37.460;2023-02-19T02:30:06;97836.16;;;-7.77;77.00
44027;BME280;29696;55.698;37.460;2023-02-19T02:44:52;97827.84;;;-7.84;77.23
44027;BME280;29696;55.698;37.460;2023-02-19T02:47:51;97842.22;;;-7.80;77.36
44027;BME280;29696;55.698;37.460;2023-02-19T02:50:22;97820.16;;;-7.84;77.27
44027;BME280;29696;55.698;37.460;2023-02-19T02:52:55;97831.31;;;-7.85;77.06
44027;BME280;29696;55.698;37.460;2023-02-19T02:55:43;97832.94;;;-7.83;77.17
44027;BME280;29696;55.698;37.460;2023-02-19T02:58:13;97835.50;;;-7.83;77.06
44027;BME280;29696;55.698;37.460;2023-02-19T03:00:42;97829.72;;;-7.88;76.75
44027;BME280;29696;55.698;37.460;2023-02-19T03:03:31;97816.91;;;-7.88;76.84
44027;BME280;29696;55.698;37.460;2023-02-19T03:06:03;97826.16;;;-7.84;76.97
44027;BME280;29696;55.698;37.460;2023-02-19T03:08:37;97820.88;;;-7.81;76.85
44027;BME280;29696;55.698;37.460;2023-02-19T03:11:09;97819.34;;;-7.85;76.79
44027;BME280;29696;55.698;37.460;2023-02-19T03:14:05;97823.44;;;-7.81;76.84
44027;BME280;29696;55.698;37.460;2023-02-19T03:16:55;97814.97;;;-7.83;77.17
44027;BME280;29696;55.698;37.460;2023-02-19T03:19:46;97819.19;;;-7.82;77.48
44027;BME280;29696;55.698;37.460;2023-02-19T03:22:27;97820.16;;;-7.84;77.66
44027;BME280;29696;55.698;37.460;2023-02-19T03:25:07;97808.25;;;-7.85;77.64
44027;BME280;29696;55.698;37.460;2023-02-19T03:27:56;97804.34;;;-7.94;77.70
44027;BME280;29696;55.698;37.460;2023-02-19T03:30:28;97807.94;;;-7.98;77.87
44027;BME280;29696;55.698;37.460;2023-02-19T03:33:22;97816.25;;;-7.93;78.33
44027;BME280;29696;55.698;37.460;2023-02-19T03:35:55;97797.69;;;-7.98;78.33
44027;BME280;29696;55.698;37.460;2023-02-19T03:38:48;97795.00;;;-7.95;78.50
44027;BME280;29696;55.698;37.460;2023-02-19T03:44:47;97801.97;;;-7.98;78.81
44027;BME280;29696;55.698;37.460;2023-02-19T03:47:50;97800.16;;;-7.96;78.36
44027;BME280;29696;55.698;37.460;2023-02-19T03:50:48;97802.72;;;-7.96;78.63
44027;BME280;29696;55.698;37.460;2023-02-19T03:53:37;97799.28;;;-7.95;78.50
44027;BME280;29696;55.698;37.460;2023-02-19T03:56:13;97783.31;;;-8.02;78.44
44027;BME280;29696;55.698;37.460;2023-02-19T04:01:55;97779.66;;;-7.96;78.30
44027;BME280;29696;55.698;37.460;2023-02-19T04:08:05;97782.09;;;-7.93;77.83
44027;BME280;29696;55.698;37.460;2023-02-19T04:10:41;97783.78;;;-7.92;77.92
44027;BME280;29696;55.698;37.460;2023-02-19T04:13:17;97772.47;;;-7.88;78.14
44027;BME280;29696;55.698;37.460;2023-02-19T04:15:46;97775.75;;;-7.85;78.23
44027;BME280;29696;55.698;37.460;2023-02-19T04:18:17;97777.47;;;-7.85;77.83
44027;BME280;29696;55.698;37.460;2023-02-19T04:20:46;97783.56;;;-7.88;77.93
44027;BME280;29696;55.698;37.460;2023-02-19T04:23:16;97779.25;;;-7.87;78.02
44027;BME280;29696;55.698;37.460;2023-02-19T04:25:47;97774.91;;;-7.85;78.29
44027;BME280;29696;55.698;37.460;2023-02-19T04:28:16;97785.47;;;-7.93;77.97
44027;BME280;29696;55.698;37.460;2023-02-19T04:30:43;97777.06;;;-7.95;78.04
44027;BME280;29696;55.698;37.460;2023-02-19T04:33:10;97776.91;;;-7.92;78.34
44027;BME280;29696;55.698;37.460;2023-02-19T04:35:36;97778.66;;;-7.92;78.67
44027;BME280;29696;55.698;37.460;2023-02-19T04:38:02;97781.97;;;-7.90;78.54
44027;BME280;29696;55.698;37.460;2023-02-19T04:40:29;97781.25;;;-7.94;78.50
44027;BME280;29696;55.698;37.460;2023-02-19T04:42:55;97772.75;;;-7.94;78.68
44027;BME280;29696;55.698;37.460;2023-02-19T04:45:21;97773.44;;;-7.91;78.76
44027;BME280;29696;55.698;37.460;2023-02-19T04:47:48;97772.66;;;-7.93;78.88
44027;BME280;29696;55.698;37.460;2023-02-19T04:50:14;97773.56;;;-7.94;78.54
44027;BME280;29696;55.698;37.460;2023-02-19T04:52:40;97769.41;;;-7.96;78.53
44027;BME280;29696;55.698;37.460;2023-02-19T04:55:07;97767.53;;;-7.93;78.74
44027;BME280;29696;55.698;37.460;2023-02-19T04:57:34;97772.75;;;-7.94;78.61
44027;BME280;29696;55.698;37.460;2023-02-19T05:00:01;97764.22;;;-7.95;78.71
44027;BME280;29696;55.698;37.460;2023-02-19T05:02:30;97760.84;;;-7.95;78.42
44027;BME280;29696;55.698;37.460;2023-02-19T05:04:56;97762.50;;;-7.94;78.60
44027;BME280;29696;55.698;37.460;2023-02-19T05:07:22;97753.06;;;-7.94;78.56
44027;BME280;29696;55.698;37.460;2023-02-19T05:09:48;97752.50;;;-8.00;78.46
44027;BME280;29696;55.698;37.460;2023-02-19T05:12:15;97751.69;;;-8.01;78.59
44027;BME280;29696;55.698;37.460;2023-02-19T05:14:41;97748.34;;;-8.03;78.92
44027;BME280;29696;55.698;37.460;2023-02-19T05:17:07;97758.53;;;-8.01;78.87
44027;BME280;29696;55.698;37.460;2023-02-19T05:19:33;97744.81;;;-8.00;78.93
44027;BME280;29696;55.698;37.460;2023-02-19T05:22:00;97746.47;;;-7.99;79.20
44027;BME280;29696;55.698;37.460;2023-02-19T05:24:26;97738.72;;;-7.98;79.53
44027;BME280;29696;55.698;37.460;2023-02-19T05:26:53;97741.28;;;-7.98;79.33
44027;BME280;29696;55.698;37.460;2023-02-19T05:29:19;97741.16;;;-7.95;79.28
44027;BME280;29696;55.698;37.460;2023-02-19T05:31:45;97728.94;;;-7.90;79.24
44027;BME280;29696;55.698;37.460;2023-02-19T05:34:12;97735.91;;;-7.92;78.88
44027;BME280;29696;55.698;37.460;2023-02-19T05:36:38;97733.13;;;-7.87;78.82
44027;BME280;29696;55.698;37.460;2023-02-19T05:39:05;97736.47;;;-7.85;78.64
44027;BME280;29696;55.698;37.460;2023-02-19T05:41:32;97735.63;;;-7.86;78.19
44027;BME280;29696;55.698;37.460;2023-02-19T05:43:58;97728.91;;;-7.88;78.39
44027;BME280;29696;55.698;37.460;2023-02-19T05:46:27;97739.03;;;-7.85;78.29
44027;BME280;29696;55.698;37.460;2023-02-19T05:48:58;97744.16;;;-7.85;77.91
44027;BME280;29696;55.698;37.460;2023-02-19T05:51:25;97732.97;;;-7.84;78.15
44027;BME280;29696;55.698;37.460;2023-02-19T05:53:52;97727.94;;;-7.86;78.32
44027;BME280;29696;55.698;37.460;2023-02-19T05:56:45;97748.69;;;-7.71;78.12
44027;BME280;29696;55.698;37.460;2023-02-19T05:59:31;97740.91;;;-7.70;77.75
44027;BME280;29696;55.698;37.460;2023-02-19T06:01:58;97749.66;;;-7.74;77.56
44027;BME280;29696;55.698;37.460;2023-02-19T06:04:24;97735.22;;;-7.76;77.27
44027;BME280;29696;55.698;37.460;2023-02-19T06:06:50;97725.59;;;-7.71;77.40
44027;BME280;29696;55.698;37.460;2023-02-19T06:09:17;97736.19;;;-7.60;77.46
44027;BME280;29696;55.698;37.460;2023-02-19T06:11:43;97735.19;;;-7.56;77.54
44027;BME280;29696;55.698;37.460;2023-02-19T06:14:13;97733.09;;;-7.48;77.22
44027;BME280;29696;55.698;37.460;2023-02-19T06:16:39;97731.22;;;-7.44;77.29
44027;BME280;29696;55.698;37.460;2023-02-19T06:19:05;97733.84;;;-7.46;76.87
44027;BME280;29696;55.698;37.460;2023-02-19T06:21:32;97728.72;;;-7.46;76.13
44027;BME280;29696;55.698;37.460;2023-02-19T06:24:03;97737.81;;;-7.39;76.20
44027;BME280;29696;55.698;37.460;2023-02-19T06:26:29;97731.78;;;-7.38;75.72
44027;BME280;29696;55.698;37.460;2023-02-19T06:28:55;97725.69;;;-7.35;75.82
44027;BME280;29696;55.698;37.460;2023-02-19T06:31:22;97727.13;;;-7.29;75.86
44027;BME280;29696;55.698;37.460;2023-02-19T06:33:49;97733.72;;;-7.24;75.80
44027;BME280;29696;55.698;37.460;2023-02-19T06:36:20;97736.84;;;-7.17;75.65
44027;BME280;29696;55.698;37.460;2023-02-19T06:38:47;97731.41;;;-7.11;75.24
44027;BME280;29696;55.698;37.460;2023-02-19T06:41:13;97724.47;;;-7.09;75.07
44027;BME280;29696;55.698;37.460;2023-02-19T06:43:40;97717.47;;;-7.05;74.31
44027;BME280;29696;55.698;37.460;2023-02-19T06:46:07;97710.44;;;-7.02;74.87
44027;BME280;29696;55.698;37.460;2023-02-19T06:48:34;97714.31;;;-6.93;74.70
44027;BME280;29696;55.698;37.460;2023-02-19T06:51:00;97711.50;;;-6.89;74.31
44027;BME280;29696;55.698;37.460;2023-02-19T06:53:27;97696.25;;;-6.92;73.71
44027;BME280;29696;55.698;37.460;2023-02-19T06:56:01;97698.38;;;-6.82;73.93
44027;BME280;29696;55.698;37.460;2023-02-19T06:58:28;97706.56;;;-6.74;73.88
44027;BME280;29696;55.698;37.460;2023-02-19T07:00:54;97694.19;;;-6.66;73.78
44027;BME280;29696;55.698;37.460;2023-02-19T07:03:21;97687.50;;;-6.70;72.92
44027;BME280;29696;55.698;37.460;2023-02-19T07:05:48;97688.06;;;-6.63;73.15
44027;BME280;29696;55.698;37.460;2023-02-19T07:08:14;97683.91;;;-6.66;72.92
44027;BME280;29696;55.698;37.460;2023-02-19T07:10:45;97693.94;;;-6.61;72.39
44027;BME280;29696;55.698;37.460;2023-02-19T07:13:18;97690.31;;;-6.75;71.34
44027;BME280;29696;55.698;37.460;2023-02-19T07:15:45;97688.97;;;-6.82;71.44
44027;BME280;29696;55.698;37.460;2023-02-19T07:18:11;97678.81;;;-6.85;72.20
44027;BME280;29696;55.698;37.460;2023-02-19T07:20:37;97676.53;;;-6.91;72.29
44027;BME280;29696;55.698;37.460;2023-02-19T07:23:04;97662.34;;;-6.98;72.60
44027;BME280;29696;55.698;37.460;2023-02-19T07:25:30;97674.69;;;-6.87;72.71
44027;BME280;29696;55.698;37.460;2023-02-19T07:27:56;97681.69;;;-6.91;72.93
44027;BME280;29696;55.698;37.460;2023-02-19T07:30:23;97680.50;;;-6.84;73.44
44027;BME280;29696;55.698;37.460;2023-02-19T07:32:49;97671.88;;;-6.83;73.59
44027;BME280;29696;55.698;37.460;2023-02-19T07:35:16;97671.66;;;-6.78;73.48
44027;BME280;29696;55.698;37.460;2023-02-19T07:37:42;97668.78;;;-6.72;74.17
44027;BME280;29696;55.698;37.460;2023-02-19T07:40:08;97668.66;;;-6.69;74.13
44027;BME280;29696;55.698;37.460;2023-02-19T07:42:35;97661.53;;;-6.64;73.06
44027;BME280;29696;55.698;37.460;2023-02-19T07:45:01;97659.88;;;-6.65;73.44
44027;BME280;29696;55.698;37.460;2023-02-19T07:47:29;97668.19;;;-6.60;73.95
44027;BME280;29696;55.698;37.460;2023-02-19T07:49:55;97666.91;;;-6.51;74.01
44027;BME280;29696;55.698;37.460;2023-02-19T07:52:22;97660.69;;;-6.47;73.48
44027;BME280;29696;55.698;37.460;2023-02-19T07:54:48;97655.34;;;-6.43;73.49
44027;BME280;29696;55.698;37.460;2023-02-19T07:57:14;97659.66;;;-6.43;73.27
44027;BME280;29696;55.698;37.460;2023-02-19T07:59:41;97645.94;;;-6.44;73.16
44027;BME280;29696;55.698;37.460;2023-02-19T08:02:25;97650.22;;;-6.27;73.29
44027;BME280;29696;55.698;37.460;2023-02-19T08:05:10;97652.44;;;-6.36;72.74
44027;BME280;29696;55.698;37.460;2023-02-19T08:07:38;97637.59;;;-6.31;72.91
44027;BME280;29696;55.698;37.460;2023-02-19T08:10:04;97650.59;;;-6.17;73.67
44027;BME280;29696;55.698;37.460;2023-02-19T08:12:59;97645.50;;;-6.01;72.82
44027;BME280;29696;55.698;37.460;2023-02-19T08:15:45;97647.66;;;-5.93;72.59
44027;BME280;29696;55.698;37.460;2023-02-19T08:18:13;97655.78;;;-5.85;72.17
44027;BME280;29696;55.698;37.460;2023-02-19T08:20:39;97631.97;;;-5.73;71.85
44027;BME280;29696;55.698;37.460;2023-02-19T08:23:06;97639.13;;;-5.62;71.19
44027;BME280;29696;55.698;37.460;2023-02-19T08:25:34;97643.50;;;-5.64;69.11
44027;BME280;29696;55.698;37.460;2023-02-19T08:28:00;97633.56;;;-5.70;68.53
44027;BME280;29696;55.698;37.460;2023-02-19T08:30:28;97634.88;;;-5.79;69.26
44027;BME280;29696;55.698;37.460;2023-02-19T08:32:55;97630.16;;;-5.71;70.43
44027;BME280;29696;55.698;37.460;2023-02-19T08:35:21;97624.75;;;-5.66;70.86
44027;BME280;29696;55.698;37.460;2023-02-19T08:37:48;97629.13;;;-5.68;70.07
44027;BME280;29696;55.698;37.460;2023-02-19T08:40:14;97629.56;;;-5.76;70.01
44027;BME280;29696;55.698;37.460;2023-02-19T08:42:40;97627.97;;;-5.79;70.14
44027;BME280;29696;55.698;37.460;2023-02-19T08:45:07;97620.91;;;-5.75;70.45
44027;BME280;29696;55.698;37.460;2023-02-19T08:47:34;97616.53;;;-5.73;70.55
44027;BME280;29696;55.698;37.460;2023-02-19T08:50:01;97629.50;;;-5.59;71.28
44027;BME280;29696;55.698;37.460;2023-02-19T08:52:30;97626.91;;;-5.59;69.62
44027;BME280;29696;55.698;37.460;2023-02-19T08:54:56;97620.78;;;-5.56;69.86
44027;BME280;29696;55.698;37.460;2023-02-19T08:57:23;97621.00;;;-5.61;69.58
44027;BME280;29696;55.698;37.460;2023-02-19T08:59:50;97616.84;;;-5.63;69.62
44027;BME280;29696;55.698;37.460;2023-02-19T09:02:16;97619.28;;;-5.76;68.82
44027;BME280;29696;55.698;37.460;2023-02-19T09:04:42;97598.59;;;-5.90;69.29
44027;BME280;29696;55.698;37.460;2023-02-19T09:07:11;97610.16;;;-5.98;69.58
44027;BME280;29696;55.698;37.460;2023-02-19T09:09:37;97612.72;;;-5.98;70.37
44027;BME280;29696;55.698;37.460;2023-02-19T09:12:08;97617.72;;;-5.94;71.09
44027;BME280;29696;55.698;37.460;2023-02-19T09:14:35;97619.47;;;-5.95;70.57
44027;BME280;29696;55.698;37.460;2023-02-19T09:17:04;97609.38;;;-5.84;70.63
44027;BME280;29696;55.698;37.460;2023-02-19T09:19:31;97599.84;;;-5.82;70.44
44027;BME280;29696;55.698;37.460;2023-02-19T09:21:58;97598.34;;;-5.70;70.91
44027;BME280;29696;55.698;37.460;2023-02-19T09:24:24;97598.03;;;-5.64;70.41
44027;BME280;29696;55.698;37.460;2023-02-19T09:26:52;97601.34;;;-5.62;69.76
44027;BME280;29696;55.698;37.460;2023-02-19T09:29:19;97596.53;;;-5.52;70.04
44027;BME280;29696;55.698;37.460;2023-02-19T09:31:46;97591.22;;;-5.49;69.62
44027;BME280;29696;55.698;37.460;2023-02-19T09:34:12;97597.75;;;-5.43;69.21
44027;BME280;29696;55.698;37.460;2023-02-19T09:36:39;97600.16;;;-5.40;68.74
44027;BME280;29696;55.698;37.460;2023-02-19T09:39:07;97592.34;;;-5.39;68.71
44027;BME280;29696;55.698;37.460;2023-02-19T09:44:43;97589.50;;;-5.18;69.49
44027;BME280;29696;55.698;37.460;2023-02-19T09:47:24;97583.28;;;-5.14;68.17
44027;BME280;29696;55.698;37.460;2023-02-19T09:49:54;97582.94;;;-5.24;68.18
44027;BME280;29696;55.698;37.460;2023-02-19T09:52:52;97572.13;;;-5.15;68.64
44027;BME280;29696;55.698;37.460;2023-02-19T09:55:30;97579.53;;;-5.24;68.75
44027;BME280;29696;55.698;37.460;2023-02-19T09:57:59;97579.00;;;-5.45;67.93
44027;BME280;29696;55.698;37.460;2023-02-19T10:00:32;97568.56;;;-5.58;68.87
44027;BME280;29696;55.698;37.460;2023-02-19T10:03:26;97577.19;;;-5.59;69.69
44027;BME280;29696;55.698;37.460;2023-02-19T10:05:58;97569.13;;;-5.69;70.38
44027;BME280;29696;55.698;37.460;2023-02-19T10:08:31;97578.03;;;-5.59;70.35
44027;BME280;29696;55.698;37.460;2023-02-19T10:10:59;97574.38;;;-5.70;69.98
44027;BME280;29696;55.698;37.460;2023-02-19T10:13:34;97572.28;;;-5.64;70.22
44027;BME280;29696;55.698;37.460;2023-02-19T10:16:03;97568.22;;;-5.52;70.98
44027;BME280;29696;55.698;37.460;2023-02-19T10:18:38;97566.09;;;-5.30;70.82
44027;BME280;29696;55.698;37.460;2023-02-19T10:21:25;97567.53;;;-5.10;69.74
44027;BME280;29696;55.698;37.460;2023-02-19T10:23:59;97567.28;;;-5.05;69.09
44027;BME280;29696;55.698;37.460;2023-02-19T10:26:27;97567.66;;;-4.97;69.45
44027;BME280;29696;55.698;37.460;2023-02-19T10:28:56;97573.00;;;-5.00;68.16
44027;BME280;29696;55.698;37.460;2023-02-19T10:31:24;97571.22;;;-5.14;67.18
44027;BME280;29696;55.698;37.460;2023-02-19T10:33:58;97568.66;;;-5.14;68.25
44027;BME280;29696;55.698;37.460;2023-02-19T10:36:31;97565.66;;;-5.22;68.31
44027;BME280;29696;55.698;37.460;2023-02-19T10:42:21;97559.16;;;-5.13;68.24
44027;BME280;29696;55.698;37.460;2023-02-19T10:44:57;97552.63;;;-5.19;68.60
44027;BME280;29696;55.698;37.460;2023-02-19T10:47:28;97565.19;;;-4.98;68.96
44027;BME280;29696;55.698;37.460;2023-02-19T10:49:58;97562.38;;;-4.79;68.91
44027;BME280;29696;55.698;37.460;2023-02-19T10:52:33;97560.47;;;-4.62;67.86
44027;BME280;29696;55.698;37.460;2023-02-19T10:58:24;97535.25;;;-4.56;67.40
44027;BME280;29696;55.698;37.460;2023-02-19T11:01:09;97556.16;;;-4.32;68.15
44027;BME280;29696;55.698;37.460;2023-02-19T11:03:36;97540.13;;;-4.38;66.01
44027;BME280;29696;55.698;37.460;2023-02-19T11:06:05;97538.38;;;-4.23;66.82
44027;BME280;29696;55.698;37.460;2023-02-19T11:08:55;97540.38;;;-4.14;66.48
44027;BME280;29696;55.698;37.460;2023-02-19T11:11:34;97538.91;;;-4.18;66.70
44027;BME280;29696;55.698;37.460;2023-02-19T11:14:15;97552.56;;;-4.30;66.57
44027;BME280;29696;55.698;37.460;2023-02-19T11:16:48;97544.00;;;-4.45;66.52
44027;BME280;29696;55.698;37.460;2023-02-19T11:19:43;97546.66;;;-4.32;67.52
44027;BME280;29696;55.698;37.460;2023-02-19T11:22:19;97537.28;;;-4.33;67.20
44027;BME280;29696;55.698;37.460;2023-02-19T11:24:49;97536.34;;;-4.32;67.92
44027;BME280;29696;55.698;37.460;2023-02-19T11:27:20;97537.66;;;-4.39;67.36
44027;BME280;29696;55.698;37.460;2023-02-19T11:29:47;97557.34;;;-4.52;66.06
44027;BME280;29696;55.698;37.460;2023-02-19T11:32:32;97540.84;;;-4.50;66.88
44027;BME280;29696;55.698;37.460;2023-02-19T11:35:18;97544.16;;;-4.62;67.94
44027;BME280;29696;55.698;37.460;2023-02-19T11:37:55;97530.06;;;-4.71;67.60
44027;BME280;29696;55.698;37.460;2023-02-19T11:40:23;97539.00;;;-4.62;67.72
44027;BME280;29696;55.698;37.460;2023-02-19T11:43:11;97533.47;;;-4.70;67.83
44027;BME280;29696;55.698;37.460;2023-02-19T11:46:07;97537.72;;;-4.69;67.17
44027;BME280;29696;55.698;37.460;2023-02-19T11:48:42;97533.75;;;-4.75;66.28
44027;BME280;29696;55.698;37.460;2023-02-19T11:57:43;97528.78;;;-4.49;65.93
44027;BME280;29696;55.698;37.460;2023-02-19T12:00:34;97530.44;;;-4.34;64.81
44027;BME280;29696;55.698;37.460;2023-02-19T12:19:08;97540.66;;;-4.75;66.89
44027;BME280;29696;55.698;37.460;2023-02-19T12:35:45;97526.41;;;-4.81;67.22
44027;BME280;29696;55.698;37.460;2023-02-19T12:38:44;97522.78;;;-4.93;66.99
44027;BME280;29696;55.698;37.460;2023-02-19T12:41:58;97524.91;;;-4.99;67.28
44027;BME280;29696;55.698;37.460;2023-02-19T12:51:47;97533.16;;;-4.94;68.66
44027;BME280;29696;55.698;37.460;2023-02-19T12:54:38;97533.88;;;-5.07;68.07
44027;BME280;29696;55.698;37.460;2023-02-19T13:00:28;97533.31;;;-5.12;69.06
44027;BME280;29696;55.698;37.460;2023-02-19T13:06:51;97539.03;;;-5.07;69.46
44027;BME280;29696;55.698;37.460;2023-02-19T13:09:37;97542.91;;;-5.14;68.48
44027;BME280;29696;55.698;37.460;2023-02-19T13:12:20;97534.03;;;-5.24;68.85
44027;BME280;29696;55.698;37.460;2023-02-19T13:14:57;97538.28;;;-5.39;68.97
44027;BME280;29696;55.698;37.460;2023-02-19T13:17:54;97533.72;;;-5.34;69.96
44027;BME280;29696;55.698;37.460;2023-02-19T13:20:32;97537.13;;;-5.33;70.71
44027;BME280;29696;55.698;37.460;2023-02-19T13:23:07;97542.38;;;-5.35;69.91
44027;BME280;29696;55.698;37.460;2023-02-19T13:26:06;97540.03;;;-5.39;69.75
44027;BME280;29696;55.698;37.460;2023-02-19T13:36:07;97533.28;;;-5.56;71.39
44027;BME280;29696;55.698;37.460;2023-02-19T13:38:40;97536.28;;;-5.64;71.59
44027;BME280;29696;55.698;37.460;2023-02-19T13:41:17;97526.97;;;-5.66;71.49
44027;BME280;29696;55.698;37.460;2023-02-19T13:43:44;97541.09;;;-5.74;72.20
44027;BME280;29696;55.698;37.460;2023-02-19T13:46:14;97534.22;;;-5.73;72.64
44027;BME280;29696;55.698;37.460;2023-02-19T13:48:42;97527.47;;;-5.76;72.22
44027;BME280;29696;55.698;37.460;2023-02-19T13:54:25;97532.97;;;-5.82;72.16
44027;BME280;29696;55.698;37.460;2023-02-19T13:57:27;97530.31;;;-5.80;72.95
44027;BME280;29696;55.698;37.460;2023-02-19T13:59:55;97532.47;;;-5.88;73.14
44027;BME280;29696;55.698;37.460;2023-02-19T14:02:42;97528.75;;;-5.83;73.67
44027;BME280;29696;55.698;37.460;2023-02-19T14:05:09;97511.97;;;-5.90;73.63
44027;BME280;29696;55.698;37.460;2023-02-19T14:07:50;97523.78;;;-5.86;73.49
44027;BME280;29696;55.698;37.460;2023-02-19T14:10:56;97517.78;;;-5.86;73.79
44027;BME280;29696;55.698;37.460;2023-02-19T14:17:03;97511.22;;;-5.76;74.67
44027;BME280;29696;55.698;37.460;2023-02-19T14:19:57;97505.66;;;-5.84;74.50
44027;BME280;29696;55.698;37.460;2023-02-19T14:28:40;97510.31;;;-5.91;74.44
44027;BME280;29696;55.698;37.460;2023-02-19T14:34:19;97514.91;;;-5.96;75.44
44027;BME280;29696;55.698;37.460;2023-02-19T14:36:59;97513.50;;;-6.02;75.77
44027;BME280;29696;55.698;37.460;2023-02-19T14:39:30;97512.78;;;-6.04;76.18
44027;BME280;29696;55.698;37.460;2023-02-19T14:42:04;97506.13;;;-6.08;76.29
44027;BME280;29696;55.698;37.460;2023-02-19T14:44:47;97504.31;;;-6.06;76.73
44027;BME280;29696;55.698;37.460;2023-02-19T14:47:17;97502.31;;;-6.16;76.73
44027;BME280;29696;55.698;37.460;2023-02-19T14:49:48;97501.81;;;-6.23;76.81
44027;BME280;29696;55.698;37.460;2023-02-19T14:52:23;97498.47;;;-6.25;77.17
44027;BME280;29696;55.698;37.460;2023-02-19T14:54:54;97486.97;;;-6.34;76.94
44027;BME280;29696;55.698;37.460;2023-02-19T14:57:28;97500.16;;;-6.40;76.92
44027;BME280;29696;55.698;37.460;2023-02-19T15:00:00;97490.34;;;-6.49;76.98
44027;BME280;29696;55.698;37.460;2023-02-19T15:02:31;97492.34;;;-6.54;77.17
44027;BME280;29696;55.698;37.460;2023-02-19T15:04:57;97498.38;;;-6.55;77.29
44027;BME280;29696;55.698;37.460;2023-02-19T15:07:30;97501.03;;;-6.57;77.24
44027;BME280;29696;55.698;37.460;2023-02-19T15:10:02;97490.00;;;-6.59;77.21
44027;BME280;29696;55.698;37.460;2023-02-19T15:12:40;97490.16;;;-6.62;77.31
44027;BME280;29696;55.698;37.460;2023-02-19T15:15:16;97493.41;;;-6.58;77.39
44027;BME280;29696;55.698;37.460;2023-02-19T15:17:43;97484.13;;;-6.61;77.40